sensor_id;sensor_type;location;lat;lon;timestamp;temperature;humidity
19232;DHT22;9750;48.730;10.294;2023-06-14T00:00:17;16.20;66.70
19232;DHT22;9750;48.730;10.294;2023-06-14T00:02:44;16.20;67.10
19232;DHT22;9750;48.730;10.294;2023-06-14T00:05:11;16.20;67.20
19232;DHT22;9750;48.730;10.294;2023-06-14T00:07:40;16.10;67.50
19232;DHT22;9750;48.730;10.294;2023-06-14T00:10:09;16.10;67.50
19232;DHT22;9750;48.730;10.294;2023-06-14T00:12:39;16.00;67.50
19232;DHT22;9750;48.730;10.294;2023-06-14T00:15:07;16.00;67.60
19232;DHT22;9750;48.730;10.294;2023-06-14T00:17:36;16.00;67.50
19232;DHT22;9750;48.730;10.294;2023-06-14T00:20:05;16.00;67.60
19232;DHT22;9750;48.730;10.294;2023-06-14T00:22:33;15.90;68.10
19232;DHT22;9750;48.730;10.294;2023-06-14T00:25:02;15.90;67.80
19232;DHT22;9750;48.730;10.294;2023-06-14T00:27:50;15.80;67.90
19232;DHT22;9750;48.730;10.294;2023-06-14T00:30:17;15.80;68.50
19232;DHT22;9750;48.730;10.294;2023-06-14T00:32:45;15.80;68.10
19232;DHT22;9750;48.730;10.294;2023-06-14T00:35:12;15.70;68.10
19232;DHT22;9750;48.730;10.294;2023-06-14T00:41:02;15.70;69.10
19232;DHT22;9750;48.730;10.294;2023-06-14T00:43:30;15.60;68.30
19232;DHT22;9750;48.730;10.294;2023-06-14T00:45:58;15.60;68.90
19232;DHT22;9750;48.730;10.294;2023-06-14T00:48:25;15.60;68.70
19232;DHT22;9750;48.730;10.294;2023-06-14T00:50:53;15.50;69.30
19232;DHT22;9750;48.730;10.294;2023-06-14T00:53:21;15.50;69.30
19232;DHT22;9750;48.730;10.294;2023-06-14T00:55:50;15.50;69.10
19232;DHT22;9750;48.730;10.294;2023-06-14T00:58:18;15.50;69.60
19232;DHT22;9750;48.730;10.294;2023-06-14T01:00:47;15.50;69.50
19232;DHT22;9750;48.730;10.294;2023-06-14T01:03:15;15.40;69.60
19232;DHT22;9750;48.730;10.294;2023-06-14T01:05:48;15.40;69.20
19232;DHT22;9750;48.730;10.294;2023-06-14T01:08:24;15.40;69.80
19232;DHT22;9750;48.730;10.294;2023-06-14T01:10:59;15.40;69.80
19232;DHT22;9750;48.730;10.294;2023-06-14T01:13:31;15.30;69.50
19232;DHT22;9750;48.730;10.294;2023-06-14T01:16:01;15.30;69.70
19232;DHT22;9750;48.730;10.294;2023-06-14T01:18:29;15.30;69.70
19232;DHT22;9750;48.730;10.294;2023-06-14T01:20:58;15.30;69.40
19232;DHT22;9750;48.730;10.294;2023-06-14T01:23:26;15.20;69.40
19232;DHT22;9750;48.730;10.294;2023-06-14T01:25:58;15.30;68.70
19232;DHT22;9750;48.730;10.294;2023-06-14T01:28:26;15.30;69.00
19232;DHT22;9750;48.730;10.294;2023-06-14T01:31:00;15.30;69.50
19232;DHT22;9750;48.730;10.294;2023-06-14T01:33:31;15.30;68.60
19232;DHT22;9750;48.730;10.294;2023-06-14T01:35:59;15.30;69.30
19232;DHT22;9750;48.730;10.294;2023-06-14T01:38:29;15.30;68.80
19232;DHT22;9750;48.730;10.294;2023-06-14T01:40:58;15.30;69.00
19232;DHT22;9750;48.730;10.294;2023-06-14T01:43:26;15.30;69.30
19232;DHT22;9750;48.730;10.294;2023-06-14T01:45:55;15.30;68.60
19232;DHT22;9750;48.730;10.294;2023-06-14T01:51:26;15.30;69.60
19232;DHT22;9750;48.730;10.294;2023-06-14T01:53:55;15.20;69.70
19232;DHT22;9750;48.730;10.294;2023-06-14T01:56:22;15.20;69.20
19232;DHT22;9750;48.730;10.294;2023-06-14T01:58:50;15.10;70.50
19232;DHT22;9750;48.730;10.294;2023-06-14T02:01:18;15.10;69.60
19232;DHT22;9750;48.730;10.294;2023-06-14T02:03:47;15.10;70.20
19232;DHT22;9750;48.730;10.294;2023-06-14T02:06:14;15.00;71.00
19232;DHT22;9750;48.730;10.294;2023-06-14T02:08:42;14.90;71.00
19232;DHT22;9750;48.730;10.294;2023-06-14T02:11:12;14.90;71.20
19232;DHT22;9750;48.730;10.294;2023-06-14T02:13:39;14.90;71.10
19232;DHT22;9750;48.730;10.294;2023-06-14T02:16:06;14.80;70.70
19232;DHT22;9750;48.730;10.294;2023-06-14T02:18:33;14.80;71.40
19232;DHT22;9750;48.730;10.294;2023-06-14T02:21:01;14.80;72.20
19232;DHT22;9750;48.730;10.294;2023-06-14T02:23:28;14.70;71.40
19232;DHT22;9750;48.730;10.294;2023-06-14T02:25:55;14.70;71.40
19232;DHT22;9750;48.730;10.294;2023-06-14T02:28:24;14.60;71.20
19232;DHT22;9750;48.730;10.294;2023-06-14T02:30:51;14.60;71.70
19232;DHT22;9750;48.730;10.294;2023-06-14T02:33:18;14.60;71.70
19232;DHT22;9750;48.730;10.294;2023-06-14T02:35:46;14.60;72.00
19232;DHT22;9750;48.730;10.294;2023-06-14T02:38:13;14.60;71.50
19232;DHT22;9750;48.730;10.294;2023-06-14T02:40:40;14.60;71.80
19232;DHT22;9750;48.730;10.294;2023-06-14T02:43:08;14.60;71.70
19232;DHT22;9750;48.730;10.294;2023-06-14T02:45:37;14.50;71.90
19232;DHT22;9750;48.730;10.294;2023-06-14T02:48:05;14.50;72.00
19232;DHT22;9750;48.730;10.294;2023-06-14T02:50:32;14.50;71.90
19232;DHT22;9750;48.730;10.294;2023-06-14T02:52:59;14.50;71.90
19232;DHT22;9750;48.730;10.294;2023-06-14T02:55:28;14.40;72.20
19232;DHT22;9750;48.730;10.294;2023-06-14T02:57:55;14.40;72.40
19232;DHT22;9750;48.730;10.294;2023-06-14T03:00:23;14.40;72.40
19232;DHT22;9750;48.730;10.294;2023-06-14T03:02:51;14.40;72.70
19232;DHT22;9750;48.730;10.294;2023-06-14T03:05:20;14.40;72.90
19232;DHT22;9750;48.730;10.294;2023-06-14T03:11:09;14.30;72.20
19232;DHT22;9750;48.730;10.294;2023-06-14T03:13:37;14.30;72.90
19232;DHT22;9750;48.730;10.294;2023-06-14T03:16:04;14.20;73.30
19232;DHT22;9750;48.730;10.294;2023-06-14T03:18:34;14.20;73.10
19232;DHT22;9750;48.730;10.294;2023-06-14T03:21:02;14.10;73.10
19232;DHT22;9750;48.730;10.294;2023-06-14T03:23:29;14.10;73.40
19232;DHT22;9750;48.730;10.294;2023-06-14T03:25:57;14.10;74.10
19232;DHT22;9750;48.730;10.294;2023-06-14T03:28:24;14.10;73.40
19232;DHT22;9750;48.730;10.294;2023-06-14T03:30:51;14.10;73.60
19232;DHT22;9750;48.730;10.294;2023-06-14T03:33:19;14.00;73.60
19232;DHT22;9750;48.730;10.294;2023-06-14T03:35:48;14.00;74.00
19232;DHT22;9750;48.730;10.294;2023-06-14T03:38:15;14.00;74.10
19232;DHT22;9750;48.730;10.294;2023-06-14T03:40:42;14.00;74.20
19232;DHT22;9750;48.730;10.294;2023-06-14T03:43:10;14.00;74.70
19232;DHT22;9750;48.730;10.294;2023-06-14T03:45:37;14.00;74.70
19232;DHT22;9750;48.730;10.294;2023-06-14T03:48:05;13.90;74.50
19232;DHT22;9750;48.730;10.294;2023-06-14T03:50:34;14.00;74.30
19232;DHT22;9750;48.730;10.294;2023-06-14T03:53:05;14.00;74.90
19232;DHT22;9750;48.730;10.294;2023-06-14T03:55:32;14.10;75.30
19232;DHT22;9750;48.730;10.294;2023-06-14T04:01:22;14.10;74.80
19232;DHT22;9750;48.730;10.294;2023-06-14T04:03:56;14.20;73.80
19232;DHT22;9750;48.730;10.294;2023-06-14T04:06:24;14.30;74.50
19232;DHT22;9750;48.730;10.294;2023-06-14T04:08:59;14.30;73.20
19232;DHT22;9750;48.730;10.294;2023-06-14T04:11:30;14.40;72.20
19232;DHT22;9750;48.730;10.294;2023-06-14T04:13:58;14.40;71.80
19232;DHT22;9750;48.730;10.294;2023-06-14T04:16:25;14.40;72.50
19232;DHT22;9750;48.730;10.294;2023-06-14T04:18:54;14.50;72.50
19232;DHT22;9750;48.730;10.294;2023-06-14T04:21:23;14.50;72.10
19232;DHT22;9750;48.730;10.294;2023-06-14T04:23:53;14.60;71.90
19232;DHT22;9750;48.730;10.294;2023-06-14T04:26:22;14.60;72.60
19232;DHT22;9750;48.730;10.294;2023-06-14T04:28:55;14.60;72.30
19232;DHT22;9750;48.730;10.294;2023-06-14T04:31:22;14.70;72.70
19232;DHT22;9750;48.730;10.294;2023-06-14T04:33:51;14.70;72.80
19232;DHT22;9750;48.730;10.294;2023-06-14T04:36:19;14.70;73.00
19232;DHT22;9750;48.730;10.294;2023-06-14T04:38:47;14.70;72.70
19232;DHT22;9750;48.730;10.294;2023-06-14T04:41:15;14.80;72.70
19232;DHT22;9750;48.730;10.294;2023-06-14T04:43:45;14.80;72.50
19232;DHT22;9750;48.730;10.294;2023-06-14T04:46:14;14.80;73.20
19232;DHT22;9750;48.730;10.294;2023-06-14T04:48:41;14.80;72.90
19232;DHT22;9750;48.730;10.294;2023-06-14T04:51:09;14.90;72.50
19232;DHT22;9750;48.730;10.294;2023-06-14T04:53:37;14.90;72.70
19232;DHT22;9750;48.730;10.294;2023-06-14T04:56:04;14.90;72.20
19232;DHT22;9750;48.730;10.294;2023-06-14T04:58:31;15.00;72.50
19232;DHT22;9750;48.730;10.294;2023-06-14T05:01:00;15.00;72.50
19232;DHT22;9750;48.730;10.294;2023-06-14T05:03:28;15.00;73.30
19232;DHT22;9750;48.730;10.294;2023-06-14T05:05:56;15.10;73.20
19232;DHT22;9750;48.730;10.294;2023-06-14T05:08:23;15.10;73.30
19232;DHT22;9750;48.730;10.294;2023-06-14T05:10:51;15.10;73.10
19232;DHT22;9750;48.730;10.294;2023-06-14T05:13:19;15.20;73.10
19232;DHT22;9750;48.730;10.294;2023-06-14T05:15:47;15.20;73.30
19232;DHT22;9750;48.730;10.294;2023-06-14T05:18:16;15.30;73.30
19232;DHT22;9750;48.730;10.294;2023-06-14T05:20:43;15.30;73.70
19232;DHT22;9750;48.730;10.294;2023-06-14T05:23:12;15.30;73.90
19232;DHT22;9750;48.730;10.294;2023-06-14T05:25:42;15.30;73.90
19232;DHT22;9750;48.730;10.294;2023-06-14T05:28:10;15.40;73.80
19232;DHT22;9750;48.730;10.294;2023-06-14T05:30:38;15.40;74.20
19232;DHT22;9750;48.730;10.294;2023-06-14T05:33:05;15.40;73.50
19232;DHT22;9750;48.730;10.294;2023-06-14T05:35:34;15.50;73.90
19232;DHT22;9750;48.730;10.294;2023-06-14T05:38:01;15.50;74.50
19232;DHT22;9750;48.730;10.294;2023-06-14T05:40:29;15.60;74.50
19232;DHT22;9750;48.730;10.294;2023-06-14T05:42:56;15.60;74.00
19232;DHT22;9750;48.730;10.294;2023-06-14T05:45:23;15.60;74.30
19232;DHT22;9750;48.730;10.294;2023-06-14T05:47:51;15.70;74.80
19232;DHT22;9750;48.730;10.294;2023-06-14T05:50:20;15.70;74.00
19232;DHT22;9750;48.730;10.294;2023-06-14T05:52:49;15.70;74.60
19232;DHT22;9750;48.730;10.294;2023-06-14T05:55:16;15.70;75.30
19232;DHT22;9750;48.730;10.294;2023-06-14T05:57:44;15.80;75.90
19232;DHT22;9750;48.730;10.294;2023-06-14T06:00:12;15.80;75.40
19232;DHT22;9750;48.730;10.294;2023-06-14T06:02:41;15.90;75.90
19232;DHT22;9750;48.730;10.294;2023-06-14T06:05:09;15.90;75.80
19232;DHT22;9750;48.730;10.294;2023-06-14T06:07:36;15.90;75.30
19232;DHT22;9750;48.730;10.294;2023-06-14T06:10:08;16.00;75.70
19232;DHT22;9750;48.730;10.294;2023-06-14T06:12:35;16.00;76.70
19232;DHT22;9750;48.730;10.294;2023-06-14T06:15:03;16.10;77.00
19232;DHT22;9750;48.730;10.294;2023-06-14T06:17:30;16.10;76.70
19232;DHT22;9750;48.730;10.294;2023-06-14T06:19:57;16.20;77.10
19232;DHT22;9750;48.730;10.294;2023-06-14T06:22:25;16.20;76.10
19232;DHT22;9750;48.730;10.294;2023-06-14T06:24:52;16.20;76.40
19232;DHT22;9750;48.730;10.294;2023-06-14T06:30:42;16.30;76.50
19232;DHT22;9750;48.730;10.294;2023-06-14T06:33:09;16.40;75.70
19232;DHT22;9750;48.730;10.294;2023-06-14T06:35:37;16.40;75.60
19232;DHT22;9750;48.730;10.294;2023-06-14T06:38:04;16.50;76.00
19232;DHT22;9750;48.730;10.294;2023-06-14T06:40:32;16.60;75.60
19232;DHT22;9750;48.730;10.294;2023-06-14T06:42:59;16.60;75.30
19232;DHT22;9750;48.730;10.294;2023-06-14T06:45:26;16.70;74.90
19232;DHT22;9750;48.730;10.294;2023-06-14T06:47:55;16.70;74.60
19232;DHT22;9750;48.730;10.294;2023-06-14T06:50:22;16.70;74.20
19232;DHT22;9750;48.730;10.294;2023-06-14T06:52:50;16.70;73.80
19232;DHT22;9750;48.730;10.294;2023-06-14T06:55:18;16.80;73.80
19232;DHT22;9750;48.730;10.294;2023-06-14T06:57:45;16.80;75.40
19232;DHT22;9750;48.730;10.294;2023-06-14T07:00:13;16.90;74.20
19232;DHT22;9750;48.730;10.294;2023-06-14T07:02:41;17.00;73.80
19232;DHT22;9750;48.730;10.294;2023-06-14T07:05:09;17.00;74.00
19232;DHT22;9750;48.730;10.294;2023-06-14T07:07:37;17.00;73.10
19232;DHT22;9750;48.730;10.294;2023-06-14T07:10:05;17.10;73.40
19232;DHT22;9750;48.730;10.294;2023-06-14T07:12:33;17.10;74.10
19232;DHT22;9750;48.730;10.294;2023-06-14T07:15:06;17.20;74.90
19232;DHT22;9750;48.730;10.294;2023-06-14T07:17:33;17.30;73.40
19232;DHT22;9750;48.730;10.294;2023-06-14T07:20:01;17.30;73.70
19232;DHT22;9750;48.730;10.294;2023-06-14T07:22:39;17.40;74.00
19232;DHT22;9750;48.730;10.294;2023-06-14T07:25:08;17.50;74.80
19232;DHT22;9750;48.730;10.294;2023-06-14T07:27:35;17.50;73.70
19232;DHT22;9750;48.730;10.294;2023-06-14T07:30:03;17.60;73.10
19232;DHT22;9750;48.730;10.294;2023-06-14T07:32:30;17.60;72.90
19232;DHT22;9750;48.730;10.294;2023-06-14T07:34:58;17.70;73.20
19232;DHT22;9750;48.730;10.294;2023-06-14T07:37:25;17.80;72.80
19232;DHT22;9750;48.730;10.294;2023-06-14T07:39:53;17.80;72.80
19232;DHT22;9750;48.730;10.294;2023-06-14T07:42:21;17.90;72.70
19232;DHT22;9750;48.730;10.294;2023-06-14T07:44:48;17.90;72.80
19232;DHT22;9750;48.730;10.294;2023-06-14T07:47:16;18.00;72.00
19232;DHT22;9750;48.730;10.294;2023-06-14T07:49:43;18.00;73.20
19232;DHT22;9750;48.730;10.294;2023-06-14T07:52:11;18.10;73.20
19232;DHT22;9750;48.730;10.294;2023-06-14T07:54:39;18.20;72.40
19232;DHT22;9750;48.730;10.294;2023-06-14T07:57:08;18.20;72.30
19232;DHT22;9750;48.730;10.294;2023-06-14T07:59:35;18.30;73.50
19232;DHT22;9750;48.730;10.294;2023-06-14T08:02:03;18.30;72.80
19232;DHT22;9750;48.730;10.294;2023-06-14T08:04:31;18.40;72.40
19232;DHT22;9750;48.730;10.294;2023-06-14T08:06:59;18.40;72.50
19232;DHT22;9750;48.730;10.294;2023-06-14T08:09:26;18.50;72.20
19232;DHT22;9750;48.730;10.294;2023-06-14T08:11:54;18.50;71.70
19232;DHT22;9750;48.730;10.294;2023-06-14T08:14:23;18.60;71.20
19232;DHT22;9750;48.730;10.294;2023-06-14T08:16:50;18.60;73.00
19232;DHT22;9750;48.730;10.294;2023-06-14T08:19:18;18.70;71.60
19232;DHT22;9750;48.730;10.294;2023-06-14T08:21:45;18.70;71.30
19232;DHT22;9750;48.730;10.294;2023-06-14T08:24:13;18.70;70.80
19232;DHT22;9750;48.730;10.294;2023-06-14T08:26:40;18.80;70.30
19232;DHT22;9750;48.730;10.294;2023-06-14T08:29:07;18.80;71.10
19232;DHT22;9750;48.730;10.294;2023-06-14T08:31:36;18.90;72.20
19232;DHT22;9750;48.730;10.294;2023-06-14T08:34:03;18.90;70.40
19232;DHT22;9750;48.730;10.294;2023-06-14T08:36:31;18.90;68.70
19232;DHT22;9750;48.730;10.294;2023-06-14T08:38:59;19.00;68.70
19232;DHT22;9750;48.730;10.294;2023-06-14T08:41:26;19.00;68.00
19232;DHT22;9750;48.730;10.294;2023-06-14T08:43:55;19.10;68.70
19232;DHT22;9750;48.730;10.294;2023-06-14T08:46:25;19.10;69.20
19232;DHT22;9750;48.730;10.294;2023-06-14T08:48:55;19.20;67.60
19232;DHT22;9750;48.730;10.294;2023-06-14T08:51:25;19.20;68.80
19232;DHT22;9750;48.730;10.294;2023-06-14T08:53:59;19.30;67.80
19232;DHT22;9750;48.730;10.294;2023-06-14T08:56:28;19.30;67.70
19232;DHT22;9750;48.730;10.294;2023-06-14T08:58:56;19.40;66.90
19232;DHT22;9750;48.730;10.294;2023-06-14T09:01:27;19.40;67.00
19232;DHT22;9750;48.730;10.294;2023-06-14T09:03:55;19.40;66.10
19232;DHT22;9750;48.730;10.294;2023-06-14T09:06:23;19.50;66.90
19232;DHT22;9750;48.730;10.294;2023-06-14T09:08:50;19.50;67.30
19232;DHT22;9750;48.730;10.294;2023-06-14T09:11:18;19.60;66.90
19232;DHT22;9750;48.730;10.294;2023-06-14T09:13:46;19.70;68.50
19232;DHT22;9750;48.730;10.294;2023-06-14T09:16:14;19.70;65.70
19232;DHT22;9750;48.730;10.294;2023-06-14T09:18:43;19.80;67.90
19232;DHT22;9750;48.730;10.294;2023-06-14T09:21:15;19.90;64.50
19232;DHT22;9750;48.730;10.294;2023-06-14T09:23:44;20.00;66.20
19232;DHT22;9750;48.730;10.294;2023-06-14T09:26:13;20.00;66.70
19232;DHT22;9750;48.730;10.294;2023-06-14T09:28:43;20.10;66.20
19232;DHT22;9750;48.730;10.294;2023-06-14T09:31:11;20.20;63.40
19232;DHT22;9750;48.730;10.294;2023-06-14T09:33:41;20.20;63.80
19232;DHT22;9750;48.730;10.294;2023-06-14T09:36:10;20.20;63.40
19232;DHT22;9750;48.730;10.294;2023-06-14T09:38:40;20.10;62.80
19232;DHT22;9750;48.730;10.294;2023-06-14T09:41:08;20.00;62.30
19232;DHT22;9750;48.730;10.294;2023-06-14T09:43:35;20.00;64.70
19232;DHT22;9750;48.730;10.294;2023-06-14T09:46:04;20.10;63.20
19232;DHT22;9750;48.730;10.294;2023-06-14T09:48:33;20.20;63.20
19232;DHT22;9750;48.730;10.294;2023-06-14T09:51:01;20.30;62.00
19232;DHT22;9750;48.730;10.294;2023-06-14T09:53:30;20.40;63.90
19232;DHT22;9750;48.730;10.294;2023-06-14T09:56:01;20.50;63.00
19232;DHT22;9750;48.730;10.294;2023-06-14T09:58:30;20.50;62.50
19232;DHT22;9750;48.730;10.294;2023-06-14T10:01:01;20.40;61.90
19232;DHT22;9750;48.730;10.294;2023-06-14T10:03:29;20.40;62.60
19232;DHT22;9750;48.730;10.294;2023-06-14T10:05:59;20.40;61.70
19232;DHT22;9750;48.730;10.294;2023-06-14T10:08:30;20.40;62.50
19232;DHT22;9750;48.730;10.294;2023-06-14T10:11:02;20.40;63.00
19232;DHT22;9750;48.730;10.294;2023-06-14T10:13:31;20.60;63.00
19232;DHT22;9750;48.730;10.294;2023-06-14T10:16:05;20.70;61.60
19232;DHT22;9750;48.730;10.294;2023-06-14T10:18:40;20.60;62.30
19232;DHT22;9750;48.730;10.294;2023-06-14T10:21:15;20.50;61.60
19232;DHT22;9750;48.730;10.294;2023-06-14T10:23:44;20.50;62.60
19232;DHT22;9750;48.730;10.294;2023-06-14T10:26:21;20.50;62.70
19232;DHT22;9750;48.730;10.294;2023-06-14T10:28:57;20.50;62.90
19232;DHT22;9750;48.730;10.294;2023-06-14T10:31:40;20.60;63.30
19232;DHT22;9750;48.730;10.294;2023-06-14T10:34:08;20.80;64.10
19232;DHT22;9750;48.730;10.294;2023-06-14T10:36:36;21.10;65.70
19232;DHT22;9750;48.730;10.294;2023-06-14T10:39:07;21.30;62.80
19232;DHT22;9750;48.730;10.294;2023-06-14T10:41:37;21.40;62.50
19232;DHT22;9750;48.730;10.294;2023-06-14T10:44:32;21.40;61.50
19232;DHT22;9750;48.730;10.294;2023-06-14T10:47:01;21.50;62.60
19232;DHT22;9750;48.730;10.294;2023-06-14T10:49:42;21.50;61.50
19232;DHT22;9750;48.730;10.294;2023-06-14T10:52:11;21.60;60.40
19232;DHT22;9750;48.730;10.294;2023-06-14T10:55:06;21.70;60.10
19232;DHT22;9750;48.730;10.294;2023-06-14T10:57:39;21.80;60.10
19232;DHT22;9750;48.730;10.294;2023-06-14T11:00:08;21.80;60.00
19232;DHT22;9750;48.730;10.294;2023-06-14T11:06:13;21.90;60.50
19232;DHT22;9750;48.730;10.294;2023-06-14T11:09:11;21.90;60.20
19232;DHT22;9750;48.730;10.294;2023-06-14T11:11:42;21.90;60.00
19232;DHT22;9750;48.730;10.294;2023-06-14T11:14:11;21.90;59.80
19232;DHT22;9750;48.730;10.294;2023-06-14T11:16:39;22.00;59.00
19232;DHT22;9750;48.730;10.294;2023-06-14T11:19:06;22.00;58.10
19232;DHT22;9750;48.730;10.294;2023-06-14T11:21:33;22.00;58.80
19232;DHT22;9750;48.730;10.294;2023-06-14T11:24:01;22.00;57.70
19232;DHT22;9750;48.730;10.294;2023-06-14T11:26:29;22.10;57.80
19232;DHT22;9750;48.730;10.294;2023-06-14T11:28:58;22.20;57.20
19232;DHT22;9750;48.730;10.294;2023-06-14T11:31:28;22.30;56.90
19232;DHT22;9750;48.730;10.294;2023-06-14T11:33:55;22.30;56.70
19232;DHT22;9750;48.730;10.294;2023-06-14T11:36:23;22.30;57.70
19232;DHT22;9750;48.730;10.294;2023-06-14T11:38:58;22.40;58.70
19232;DHT22;9750;48.730;10.294;2023-06-14T11:41:31;22.50;57.70
19232;DHT22;9750;48.730;10.294;2023-06-14T11:44:00;22.50;57.80
19232;DHT22;9750;48.730;10.294;2023-06-14T11:46:29;22.60;57.70
19232;DHT22;9750;48.730;10.294;2023-06-14T11:48:56;22.60;56.10
19232;DHT22;9750;48.730;10.294;2023-06-14T11:51:24;22.50;55.80
19232;DHT22;9750;48.730;10.294;2023-06-14T11:53:51;22.50;56.00
19232;DHT22;9750;48.730;10.294;2023-06-14T11:56:19;22.40;57.00
19232;DHT22;9750;48.730;10.294;2023-06-14T11:58:46;22.40;57.10
19232;DHT22;9750;48.730;10.294;2023-06-14T12:01:16;22.40;58.60
19232;DHT22;9750;48.730;10.294;2023-06-14T12:03:49;22.40;56.30
19232;DHT22;9750;48.730;10.294;2023-06-14T12:06:24;22.40;58.20
19232;DHT22;9750;48.730;10.294;2023-06-14T12:08:55;22.50;58.90
19232;DHT22;9750;48.730;10.294;2023-06-14T12:11:24;22.50;59.00
19232;DHT22;9750;48.730;10.294;2023-06-14T12:13:56;22.60;59.40
19232;DHT22;9750;48.730;10.294;2023-06-14T12:16:30;22.80;58.60
19232;DHT22;9750;48.730;10.294;2023-06-14T12:19:08;22.90;56.90
19232;DHT22;9750;48.730;10.294;2023-06-14T12:21:37;23.10;58.40
19232;DHT22;9750;48.730;10.294;2023-06-14T12:24:06;23.10;56.80
19232;DHT22;9750;48.730;10.294;2023-06-14T12:26:38;23.10;56.60
19232;DHT22;9750;48.730;10.294;2023-06-14T12:29:05;23.10;56.50
19232;DHT22;9750;48.730;10.294;2023-06-14T12:31:33;23.00;56.60
19232;DHT22;9750;48.730;10.294;2023-06-14T12:34:02;22.90;57.00
19232;DHT22;9750;48.730;10.294;2023-06-14T12:36:29;22.80;56.90
19232;DHT22;9750;48.730;10.294;2023-06-14T12:38:57;22.80;57.10
19232;DHT22;9750;48.730;10.294;2023-06-14T12:41:25;22.70;56.80
19232;DHT22;9750;48.730;10.294;2023-06-14T12:43:52;22.70;58.30
19232;DHT22;9750;48.730;10.294;2023-06-14T12:46:20;22.80;57.70
19232;DHT22;9750;48.730;10.294;2023-06-14T12:48:47;22.80;56.80
19232;DHT22;9750;48.730;10.294;2023-06-14T12:51:16;22.80;56.20
19232;DHT22;9750;48.730;10.294;2023-06-14T12:53:43;22.90;57.90
19232;DHT22;9750;48.730;10.294;2023-06-14T12:56:11;22.90;56.30
19232;DHT22;9750;48.730;10.294;2023-06-14T12:58:38;22.90;56.40
19232;DHT22;9750;48.730;10.294;2023-06-14T13:01:05;22.90;56.20
19232;DHT22;9750;48.730;10.294;2023-06-14T13:03:32;23.00;57.10
19232;DHT22;9750;48.730;10.294;2023-06-14T13:06:00;23.00;55.30
19232;DHT22;9750;48.730;10.294;2023-06-14T13:08:30;22.90;55.40
19232;DHT22;9750;48.730;10.294;2023-06-14T13:10:58;23.00;58.00
19232;DHT22;9750;48.730;10.294;2023-06-14T13:13:27;23.10;56.60
19232;DHT22;9750;48.730;10.294;2023-06-14T13:15:55;23.20;55.80
19232;DHT22;9750;48.730;10.294;2023-06-14T13:18:22;23.20;56.40
19232;DHT22;9750;48.730;10.294;2023-06-14T13:20:49;23.40;57.50
19232;DHT22;9750;48.730;10.294;2023-06-14T13:23:17;23.50;56.40
19232;DHT22;9750;48.730;10.294;2023-06-14T13:25:45;23.70;55.90
19232;DHT22;9750;48.730;10.294;2023-06-14T13:28:15;23.80;56.40
19232;DHT22;9750;48.730;10.294;2023-06-14T13:30:42;23.90;56.10
19232;DHT22;9750;48.730;10.294;2023-06-14T13:33:09;24.10;54.00
19232;DHT22;9750;48.730;10.294;2023-06-14T13:35:37;24.20;53.40
19232;DHT22;9750;48.730;10.294;2023-06-14T13:38:04;24.10;53.20
19232;DHT22;9750;48.730;10.294;2023-06-14T13:40:31;24.20;55.60
19232;DHT22;9750;48.730;10.294;2023-06-14T13:43:00;24.20;53.40
19232;DHT22;9750;48.730;10.294;2023-06-14T13:45:27;24.20;53.40
19232;DHT22;9750;48.730;10.294;2023-06-14T13:47:54;24.20;53.70
19232;DHT22;9750;48.730;10.294;2023-06-14T13:50:21;24.10;54.20
19232;DHT22;9750;48.730;10.294;2023-06-14T13:52:49;24.10;54.50
19232;DHT22;9750;48.730;10.294;2023-06-14T13:55:16;24.00;53.30
19232;DHT22;9750;48.730;10.294;2023-06-14T13:57:43;24.00;53.90
19232;DHT22;9750;48.730;10.294;2023-06-14T14:00:13;23.90;53.30
19232;DHT22;9750;48.730;10.294;2023-06-14T14:02:41;23.90;53.70
19232;DHT22;9750;48.730;10.294;2023-06-14T14:05:09;23.90;54.90
19232;DHT22;9750;48.730;10.294;2023-06-14T14:10:58;24.00;55.70
19232;DHT22;9750;48.730;10.294;2023-06-14T14:13:26;24.30;54.10
19232;DHT22;9750;48.730;10.294;2023-06-14T14:15:55;24.50;55.30
19232;DHT22;9750;48.730;10.294;2023-06-14T14:18:22;24.60;54.80
19232;DHT22;9750;48.730;10.294;2023-06-14T14:20:49;24.70;53.50
19232;DHT22;9750;48.730;10.294;2023-06-14T14:23:16;24.70;52.00
19232;DHT22;9750;48.730;10.294;2023-06-14T14:25:45;24.60;53.50
19232;DHT22;9750;48.730;10.294;2023-06-14T14:28:44;24.60;53.60
19232;DHT22;9750;48.730;10.294;2023-06-14T14:31:13;24.60;54.90
19232;DHT22;9750;48.730;10.294;2023-06-14T14:33:40;24.70;52.20
19232;DHT22;9750;48.730;10.294;2023-06-14T14:36:07;24.70;54.10
19232;DHT22;9750;48.730;10.294;2023-06-14T14:38:35;24.70;54.40
19232;DHT22;9750;48.730;10.294;2023-06-14T14:41:02;24.80;51.60
19232;DHT22;9750;48.730;10.294;2023-06-14T14:43:29;24.80;51.60
19232;DHT22;9750;48.730;10.294;2023-06-14T14:45:58;24.80;52.90
19232;DHT22;9750;48.730;10.294;2023-06-14T14:48:26;25.00;52.00
19232;DHT22;9750;48.730;10.294;2023-06-14T14:50:54;25.10;52.70
19232;DHT22;9750;48.730;10.294;2023-06-14T14:53:21;25.30;51.60
19232;DHT22;9750;48.730;10.294;2023-06-14T14:55:48;25.40;51.70
19232;DHT22;9750;48.730;10.294;2023-06-14T14:58:16;25.50;51.70
19232;DHT22;9750;48.730;10.294;2023-06-14T15:00:44;25.30;50.30
19232;DHT22;9750;48.730;10.294;2023-06-14T15:03:11;25.20;51.10
19232;DHT22;9750;48.730;10.294;2023-06-14T15:05:40;24.90;52.50
19232;DHT22;9750;48.730;10.294;2023-06-14T15:08:07;24.60;52.60
19232;DHT22;9750;48.730;10.294;2023-06-14T15:10:37;24.40;52.70
19232;DHT22;9750;48.730;10.294;2023-06-14T15:13:06;24.30;53.80
19232;DHT22;9750;48.730;10.294;2023-06-14T15:15:34;24.40;53.70
19232;DHT22;9750;48.730;10.294;2023-06-14T15:18:01;24.40;53.80
19232;DHT22;9750;48.730;10.294;2023-06-14T15:20:28;24.40;53.40
19232;DHT22;9750;48.730;10.294;2023-06-14T15:22:57;24.50;53.60
19232;DHT22;9750;48.730;10.294;2023-06-14T15:25:26;24.40;53.60
19232;DHT22;9750;48.730;10.294;2023-06-14T15:27:55;24.50;54.50
19232;DHT22;9750;48.730;10.294;2023-06-14T15:30:22;24.50;54.00
19232;DHT22;9750;48.730;10.294;2023-06-14T15:32:50;24.50;52.60
19232;DHT22;9750;48.730;10.294;2023-06-14T15:35:17;24.60;54.40
19232;DHT22;9750;48.730;10.294;2023-06-14T15:37:47;24.70;55.20
19232;DHT22;9750;48.730;10.294;2023-06-14T15:40:16;24.60;53.40
19232;DHT22;9750;48.730;10.294;2023-06-14T15:42:43;24.50;53.50
19232;DHT22;9750;48.730;10.294;2023-06-14T15:45:10;24.50;53.70
19232;DHT22;9750;48.730;10.294;2023-06-14T15:47:38;24.50;53.40
19232;DHT22;9750;48.730;10.294;2023-06-14T15:50:06;24.50;53.50
19232;DHT22;9750;48.730;10.294;2023-06-14T15:52:34;24.50;53.50
19232;DHT22;9750;48.730;10.294;2023-06-14T15:55:01;24.60;53.50
19232;DHT22;9750;48.730;10.294;2023-06-14T15:57:30;24.70;52.50
19232;DHT22;9750;48.730;10.294;2023-06-14T15:59:57;24.60;53.20
19232;DHT22;9750;48.730;10.294;2023-06-14T16:02:24;24.60;53.10